Terminal Aerodrome Forecast
Issued by NWS

Current Version | Previous Version | Text Only | Print | Product List | Glossary On
Versions: 1 2 3 4 5 6 7 8 9 10 11 12 13 14 15 16
000
FTUS46 KSGX 301742
TAFONT
TAF
KONT 301742Z 3018/0124 VRB04KT P6SM FEW100
     FM302100 25010G17KT P6SM FEW100
     FM010400 VRB04KT P6SM SKC
     FM012100 25010G17KT P6SM SKC=

USA.gov is the U.S. government's official web portal to all federal, state and local government web resources and services.